sensor_id;sensor_type;location;lat;lon;timestamp;pressure;altitude;pressure_sealevel;temperature;humidity
71465;BME280;59274;49.874;9.154;2023-04-09T00:01:05;101235.72;;;4.75;100.00
71465;BME280;59274;49.874;9.154;2023-04-09T00:03:31;101235.00;;;4.60;100.00
71465;BME280;59274;49.874;9.154;2023-04-09T00:05:57;101237.91;;;4.50;100.00
71465;BME280;59274;49.874;9.154;2023-04-09T00:08:25;101231.16;;;4.30;100.00
71465;BME280;59274;49.874;9.154;2023-04-09T00:10:51;101235.41;;;4.09;100.00
71465;BME280;59274;49.874;9.154;2023-04-09T00:13:17;101235.75;;;3.94;100.00
71465;BME280;59274;49.874;9.154;2023-04-09T00:15:43;101229.19;;;3.86;100.00
71465;BME280;59274;49.874;9.154;2023-04-09T00:18:09;101232.00;;;3.81;100.00
71465;BME280;59274;49.874;9.154;2023-04-09T00:20:35;101225.50;;;3.96;100.00
71465;BME280;59274;49.874;9.154;2023-04-09T00:23:00;101225.38;;;4.01;100.00
71465;BME280;59274;49.874;9.154;2023-04-09T00:25:26;101225.06;;;4.03;100.00
71465;BME280;59274;49.874;9.154;2023-04-09T00:27:53;101225.88;;;4.03;100.00
71465;BME280;59274;49.874;9.154;2023-04-09T00:30:19;101223.66;;;4.05;100.00
71465;BME280;59274;49.874;9.154;2023-04-09T00:32:44;101224.88;;;3.99;100.00
71465;BME280;59274;49.874;9.154;2023-04-09T00:35:10;101216.56;;;3.87;100.00
71465;BME280;59274;49.874;9.154;2023-04-09T00:37:36;101223.09;;;3.94;100.00
71465;BME280;59274;49.874;9.154;2023-04-09T00:40:02;101226.88;;;3.93;100.00
71465;BME280;59274;49.874;9.154;2023-04-09T00:42:35;101222.47;;;3.75;100.00
71465;BME280;59274;49.874;9.154;2023-04-09T00:45:02;101222.97;;;3.64;100.00
71465;BME280;59274;49.874;9.154;2023-04-09T00:47:28;101224.69;;;3.46;100.00
71465;BME280;59274;49.874;9.154;2023-04-09T00:49:55;101221.63;;;3.39;100.00
71465;BME280;59274;49.874;9.154;2023-04-09T00:52:22;101220.59;;;3.48;100.00
71465;BME280;59274;49.874;9.154;2023-04-09T00:54:51;101233.56;;;3.33;100.00
71465;BME280;59274;49.874;9.154;2023-04-09T00:57:18;101227.88;;;3.34;100.00
71465;BME280;59274;49.874;9.154;2023-04-09T00:59:44;101226.31;;;3.33;100.00
71465;BME280;59274;49.874;9.154;2023-04-09T01:02:10;101222.59;;;3.29;100.00
71465;BME280;59274;49.874;9.154;2023-04-09T01:04:37;101223.50;;;3.38;100.00
71465;BME280;59274;49.874;9.154;2023-04-09T01:07:14;101228.19;;;3.33;100.00
71465;BME280;59274;49.874;9.154;2023-04-09T01:09:47;101220.03;;;3.38;100.00
71465;BME280;59274;49.874;9.154;2023-04-09T01:15:05;101220.22;;;3.41;100.00
71465;BME280;59274;49.874;9.154;2023-04-09T01:17:37;101227.97;;;3.29;100.00
71465;BME280;59274;49.874;9.154;2023-04-09T01:20:25;101224.78;;;3.27;100.00
71465;BME280;59274;49.874;9.154;2023-04-09T01:28:45;101218.44;;;3.23;100.00
71465;BME280;59274;49.874;9.154;2023-04-09T01:31:17;101220.31;;;3.23;100.00
71465;BME280;59274;49.874;9.154;2023-04-09T01:33:43;101227.78;;;3.26;100.00
71465;BME280;59274;49.874;9.154;2023-04-09T01:36:10;101219.53;;;3.22;100.00
71465;BME280;59274;49.874;9.154;2023-04-09T01:38:39;101227.97;;;3.15;100.00
71465;BME280;59274;49.874;9.154;2023-04-09T01:41:06;101230.16;;;3.00;100.00
71465;BME280;59274;49.874;9.154;2023-04-09T01:43:33;101231.06;;;3.09;100.00
71465;BME280;59274;49.874;9.154;2023-04-09T01:46:02;101224.19;;;3.03;100.00
71465;BME280;59274;49.874;9.154;2023-04-09T01:48:29;101220.44;;;3.04;100.00
71465;BME280;59274;49.874;9.154;2023-04-09T01:50:57;101225.78;;;3.04;100.00
71465;BME280;59274;49.874;9.154;2023-04-09T01:53:22;101223.41;;;3.02;100.00
71465;BME280;59274;49.874;9.154;2023-04-09T01:55:48;101224.59;;;3.10;100.00
71465;BME280;59274;49.874;9.154;2023-04-09T01:58:13;101227.69;;;3.03;100.00
71465;BME280;59274;49.874;9.154;2023-04-09T02:00:44;101227.88;;;3.07;100.00
71465;BME280;59274;49.874;9.154;2023-04-09T02:03:24;101228.88;;;2.97;100.00
71465;BME280;59274;49.874;9.154;2023-04-09T02:06:12;101227.38;;;2.91;100.00
71465;BME280;59274;49.874;9.154;2023-04-09T02:08:43;101222.78;;;2.92;100.00
71465;BME280;59274;49.874;9.154;2023-04-09T02:11:10;101225.81;;;2.71;100.00
71465;BME280;59274;49.874;9.154;2023-04-09T02:13:36;101225.03;;;2.71;100.00
71465;BME280;59274;49.874;9.154;2023-04-09T02:16:02;101232.28;;;2.70;100.00
71465;BME280;59274;49.874;9.154;2023-04-09T02:18:29;101225.38;;;2.51;100.00
71465;BME280;59274;49.874;9.154;2023-04-09T02:20:56;101225.22;;;2.61;100.00
71465;BME280;59274;49.874;9.154;2023-04-09T02:23:22;101223.78;;;2.50;100.00
71465;BME280;59274;49.874;9.154;2023-04-09T02:25:48;101226.59;;;2.58;100.00
71465;BME280;59274;49.874;9.154;2023-04-09T02:28:14;101228.09;;;2.64;100.00
71465;BME280;59274;49.874;9.154;2023-04-09T02:30:39;101223.47;;;2.70;100.00
71465;BME280;59274;49.874;9.154;2023-04-09T02:33:05;101227.81;;;2.66;100.00
71465;BME280;59274;49.874;9.154;2023-04-09T02:35:30;101225.44;;;2.78;100.00
71465;BME280;59274;49.874;9.154;2023-04-09T02:37:56;101223.16;;;2.85;100.00
71465;BME280;59274;49.874;9.154;2023-04-09T02:40:21;101227.38;;;2.91;100.00
71465;BME280;59274;49.874;9.154;2023-04-09T02:42:47;101213.06;;;2.96;100.00
71465;BME280;59274;49.874;9.154;2023-04-09T02:45:12;101220.44;;;3.04;100.00
71465;BME280;59274;49.874;9.154;2023-04-09T02:47:37;101218.22;;;3.06;100.00
71465;BME280;59274;49.874;9.154;2023-04-09T02:50:04;101223.81;;;3.09;100.00
71465;BME280;59274;49.874;9.154;2023-04-09T02:52:29;101224.72;;;3.05;100.00
71465;BME280;59274;49.874;9.154;2023-04-09T02:54:55;101215.25;;;3.07;100.00
71465;BME280;59274;49.874;9.154;2023-04-09T02:57:20;101221.41;;;3.22;100.00
71465;BME280;59274;49.874;9.154;2023-04-09T02:59:46;101227.47;;;3.13;100.00
71465;BME280;59274;49.874;9.154;2023-04-09T03:02:11;101222.22;;;3.22;100.00
71465;BME280;59274;49.874;9.154;2023-04-09T03:04:37;101213.97;;;3.32;100.00
71465;BME280;59274;49.874;9.154;2023-04-09T03:07:03;101222.09;;;3.27;100.00
71465;BME280;59274;49.874;9.154;2023-04-09T03:09:29;101211.84;;;3.43;100.00
71465;BME280;59274;49.874;9.154;2023-04-09T03:11:55;101213.97;;;3.46;100.00
71465;BME280;59274;49.874;9.154;2023-04-09T03:14:22;101208.09;;;3.44;100.00
71465;BME280;59274;49.874;9.154;2023-04-09T03:16:47;101207.38;;;3.52;100.00
71465;BME280;59274;49.874;9.154;2023-04-09T03:19:13;101202.59;;;3.49;100.00
71465;BME280;59274;49.874;9.154;2023-04-09T03:21:38;101201.59;;;3.59;100.00
71465;BME280;59274;49.874;9.154;2023-04-09T03:24:05;101198.91;;;3.59;100.00
71465;BME280;59274;49.874;9.154;2023-04-09T03:26:30;101206.97;;;3.59;100.00
71465;BME280;59274;49.874;9.154;2023-04-09T03:29:01;101203.88;;;3.65;100.00
71465;BME280;59274;49.874;9.154;2023-04-09T03:31:26;101206.84;;;3.64;100.00
71465;BME280;59274;49.874;9.154;2023-04-09T03:33:52;101212.03;;;3.60;100.00
71465;BME280;59274;49.874;9.154;2023-04-09T03:36:17;101204.78;;;3.61;100.00
71465;BME280;59274;49.874;9.154;2023-04-09T03:38:42;101202.78;;;3.66;100.00
71465;BME280;59274;49.874;9.154;2023-04-09T03:41:08;101204.09;;;3.69;100.00
71465;BME280;59274;49.874;9.154;2023-04-09T03:43:33;101205.06;;;3.73;100.00
71465;BME280;59274;49.874;9.154;2023-04-09T03:45:58;101206.53;;;3.79;100.00
71465;BME280;59274;49.874;9.154;2023-04-09T03:48:24;101200.72;;;3.85;100.00
71465;BME280;59274;49.874;9.154;2023-04-09T03:50:49;101203.91;;;3.87;100.00
71465;BME280;59274;49.874;9.154;2023-04-09T03:53:15;101207.56;;;3.91;100.00
71465;BME280;59274;49.874;9.154;2023-04-09T03:55:40;101210.25;;;3.91;100.00
71465;BME280;59274;49.874;9.154;2023-04-09T03:58:05;101209.75;;;4.03;100.00
71465;BME280;59274;49.874;9.154;2023-04-09T04:00:31;101214.13;;;3.99;100.00
71465;BME280;59274;49.874;9.154;2023-04-09T04:02:56;101207.53;;;4.05;100.00
71465;BME280;59274;49.874;9.154;2023-04-09T04:05:23;101209.13;;;4.06;100.00
71465;BME280;59274;49.874;9.154;2023-04-09T04:07:50;101206.56;;;4.01;100.00
71465;BME280;59274;49.874;9.154;2023-04-09T04:10:15;101202.91;;;3.97;100.00
71465;BME280;59274;49.874;9.154;2023-04-09T04:12:41;101209.13;;;4.06;100.00
71465;BME280;59274;49.874;9.154;2023-04-09T04:15:06;101198.19;;;4.03;100.00
71465;BME280;59274;49.874;9.154;2023-04-09T04:17:32;101201.03;;;3.98;100.00
71465;BME280;59274;49.874;9.154;2023-04-09T04:19:57;101214.25;;;3.94;100.00
71465;BME280;59274;49.874;9.154;2023-04-09T04:22:23;101219.50;;;3.99;100.00
71465;BME280;59274;49.874;9.154;2023-04-09T04:24:48;101222.81;;;3.96;100.00
71465;BME280;59274;49.874;9.154;2023-04-09T04:27:14;101219.38;;;3.82;100.00
71465;BME280;59274;49.874;9.154;2023-04-09T04:29:39;101221.72;;;3.97;100.00
71465;BME280;59274;49.874;9.154;2023-04-09T04:32:05;101215.34;;;3.93;100.00
71465;BME280;59274;49.874;9.154;2023-04-09T04:34:30;101220.13;;;3.96;100.00
71465;BME280;59274;49.874;9.154;2023-04-09T04:36:56;101218.41;;;4.00;100.00
71465;BME280;59274;49.874;9.154;2023-04-09T04:39:21;101214.97;;;3.86;100.00
71465;BME280;59274;49.874;9.154;2023-04-09T04:41:46;101220.47;;;3.81;100.00
71465;BME280;59274;49.874;9.154;2023-04-09T04:44:12;101219.91;;;3.92;100.00
71465;BME280;59274;49.874;9.154;2023-04-09T04:46:37;101225.66;;;4.00;100.00
71465;BME280;59274;49.874;9.154;2023-04-09T04:49:02;101220.50;;;4.03;100.00
71465;BME280;59274;49.874;9.154;2023-04-09T04:51:30;101222.81;;;3.96;100.00
71465;BME280;59274;49.874;9.154;2023-04-09T04:53:55;101225.13;;;3.89;100.00
71465;BME280;59274;49.874;9.154;2023-04-09T04:56:21;101228.47;;;3.94;100.00
71465;BME280;59274;49.874;9.154;2023-04-09T04:58:46;101231.34;;;3.98;100.00
71465;BME280;59274;49.874;9.154;2023-04-09T05:01:12;101231.84;;;4.00;100.00
71465;BME280;59274;49.874;9.154;2023-04-09T05:03:37;101229.53;;;4.07;100.00
71465;BME280;59274;49.874;9.154;2023-04-09T05:06:02;101233.63;;;4.05;100.00
71465;BME280;59274;49.874;9.154;2023-04-09T05:08:28;101238.22;;;4.04;100.00
71465;BME280;59274;49.874;9.154;2023-04-09T05:10:54;101242.78;;;4.04;100.00
71465;BME280;59274;49.874;9.154;2023-04-09T05:13:22;101237.72;;;4.02;100.00
71465;BME280;59274;49.874;9.154;2023-04-09T05:15:48;101233.13;;;4.03;100.00
71465;BME280;59274;49.874;9.154;2023-04-09T05:18:14;101237.00;;;4.10;100.00
71465;BME280;59274;49.874;9.154;2023-04-09T05:20:39;101234.78;;;4.12;100.00
71465;BME280;59274;49.874;9.154;2023-04-09T05:23:05;101237.97;;;4.14;100.00
71465;BME280;59274;49.874;9.154;2023-04-09T05:25:30;101236.16;;;4.23;100.00
71465;BME280;59274;49.874;9.154;2023-04-09T05:27:56;101232.53;;;4.28;100.00
71465;BME280;59274;49.874;9.154;2023-04-09T05:30:21;101232.13;;;4.34;100.00
71465;BME280;59274;49.874;9.154;2023-04-09T05:32:47;101234.88;;;4.43;100.00
71465;BME280;59274;49.874;9.154;2023-04-09T05:35:12;101225.88;;;4.48;100.00
71465;BME280;59274;49.874;9.154;2023-04-09T05:37:37;101239.66;;;4.46;100.00
71465;BME280;59274;49.874;9.154;2023-04-09T05:40:03;101234.78;;;4.57;100.00
71465;BME280;59274;49.874;9.154;2023-04-09T05:42:29;101235.09;;;4.55;100.00
71465;BME280;59274;49.874;9.154;2023-04-09T05:44:54;101233.56;;;4.63;100.00
71465;BME280;59274;49.874;9.154;2023-04-09T05:47:20;101234.19;;;4.60;100.00
71465;BME280;59274;49.874;9.154;2023-04-09T05:49:46;101236.88;;;4.60;100.00
71465;BME280;59274;49.874;9.154;2023-04-09T05:52:11;101230.19;;;4.80;100.00
71465;BME280;59274;49.874;9.154;2023-04-09T05:54:36;101232.69;;;4.76;100.00
71465;BME280;59274;49.874;9.154;2023-04-09T05:57:02;101229.41;;;4.79;100.00
71465;BME280;59274;49.874;9.154;2023-04-09T05:59:27;101226.09;;;4.82;100.00
71465;BME280;59274;49.874;9.154;2023-04-09T06:01:53;101228.81;;;4.91;100.00
71465;BME280;59274;49.874;9.154;2023-04-09T06:04:18;101227.25;;;4.90;100.00
71465;BME280;59274;49.874;9.154;2023-04-09T06:06:43;101228.16;;;4.85;100.00
71465;BME280;59274;49.874;9.154;2023-04-09T06:09:09;101223.47;;;4.99;100.00
71465;BME280;59274;49.874;9.154;2023-04-09T06:11:35;101226.69;;;5.10;100.00
71465;BME280;59274;49.874;9.154;2023-04-09T06:14:00;101226.50;;;5.06;100.00
71465;BME280;59274;49.874;9.154;2023-04-09T06:16:26;101226.03;;;5.04;100.00
71465;BME280;59274;49.874;9.154;2023-04-09T06:18:51;101234.09;;;5.04;100.00
71465;BME280;59274;49.874;9.154;2023-04-09T06:21:18;101228.59;;;5.09;100.00
71465;BME280;59274;49.874;9.154;2023-04-09T06:23:44;101233.56;;;5.25;100.00
71465;BME280;59274;49.874;9.154;2023-04-09T06:26:09;101231.66;;;5.25;100.00
71465;BME280;59274;49.874;9.154;2023-04-09T06:28:35;101234.25;;;5.39;100.00
71465;BME280;59274;49.874;9.154;2023-04-09T06:31:00;101237.94;;;5.51;100.00
71465;BME280;59274;49.874;9.154;2023-04-09T06:33:26;101234.78;;;5.58;100.00
71465;BME280;59274;49.874;9.154;2023-04-09T06:35:51;101228.44;;;5.63;100.00
71465;BME280;59274;49.874;9.154;2023-04-09T06:38:17;101234.78;;;5.67;100.00
71465;BME280;59274;49.874;9.154;2023-04-09T06:40:43;101236.53;;;5.71;100.00
71465;BME280;59274;49.874;9.154;2023-04-09T06:43:08;101245.09;;;5.73;100.00
71465;BME280;59274;49.874;9.154;2023-04-09T06:45:34;101249.06;;;5.84;100.00
71465;BME280;59274;49.874;9.154;2023-04-09T06:48:00;101248.31;;;5.93;100.00
71465;BME280;59274;49.874;9.154;2023-04-09T06:50:25;101251.19;;;6.05;100.00
71465;BME280;59274;49.874;9.154;2023-04-09T06:52:51;101254.69;;;6.22;100.00
71465;BME280;59274;49.874;9.154;2023-04-09T06:55:17;101249.31;;;6.22;100.00
71465;BME280;59274;49.874;9.154;2023-04-09T06:57:42;101255.00;;;6.29;100.00
71465;BME280;59274;49.874;9.154;2023-04-09T07:00:09;101253.25;;;6.42;100.00
71465;BME280;59274;49.874;9.154;2023-04-09T07:02:35;101249.44;;;6.52;100.00
71465;BME280;59274;49.874;9.154;2023-04-09T07:05:01;101247.19;;;6.62;100.00
71465;BME280;59274;49.874;9.154;2023-04-09T07:07:27;101247.97;;;6.72;100.00
71465;BME280;59274;49.874;9.154;2023-04-09T07:09:52;101256.19;;;6.92;100.00
71465;BME280;59274;49.874;9.154;2023-04-09T07:12:31;101254.56;;;7.00;100.00
71465;BME280;59274;49.874;9.154;2023-04-09T07:14:58;101248.19;;;7.04;100.00
71465;BME280;59274;49.874;9.154;2023-04-09T07:17:24;101248.97;;;7.14;100.00
71465;BME280;59274;49.874;9.154;2023-04-09T07:19:49;101256.56;;;7.20;100.00
71465;BME280;59274;49.874;9.154;2023-04-09T07:22:25;101253.50;;;7.30;99.50
71465;BME280;59274;49.874;9.154;2023-04-09T07:24:51;101256.72;;;7.24;99.67
71465;BME280;59274;49.874;9.154;2023-04-09T07:27:28;101264.13;;;7.35;100.00
71465;BME280;59274;49.874;9.154;2023-04-09T07:29:57;101253.41;;;7.47;100.00
71465;BME280;59274;49.874;9.154;2023-04-09T07:32:24;101256.94;;;7.69;100.00
71465;BME280;59274;49.874;9.154;2023-04-09T07:34:50;101263.38;;;7.85;98.68
71465;BME280;59274;49.874;9.154;2023-04-09T07:37:17;101263.00;;;7.95;97.81
71465;BME280;59274;49.874;9.154;2023-04-09T07:39:42;101264.97;;;8.27;98.01
71465;BME280;59274;49.874;9.154;2023-04-09T07:42:08;101265.25;;;8.35;95.61
71465;BME280;59274;49.874;9.154;2023-04-09T07:44:34;101264.66;;;8.50;96.42
71465;BME280;59274;49.874;9.154;2023-04-09T07:47:01;101254.25;;;8.73;93.70
71465;BME280;59274;49.874;9.154;2023-04-09T07:49:26;101258.72;;;8.69;94.25
71465;BME280;59274;49.874;9.154;2023-04-09T07:51:52;101262.97;;;8.90;93.71
71465;BME280;59274;49.874;9.154;2023-04-09T07:54:17;101265.50;;;9.08;93.73
71465;BME280;59274;49.874;9.154;2023-04-09T07:56:45;101262.00;;;9.31;92.79
71465;BME280;59274;49.874;9.154;2023-04-09T07:59:10;101257.16;;;9.49;91.32
71465;BME280;59274;49.874;9.154;2023-04-09T08:01:36;101258.84;;;9.78;91.47
71465;BME280;59274;49.874;9.154;2023-04-09T08:04:01;101259.94;;;9.89;89.17
71465;BME280;59274;49.874;9.154;2023-04-09T08:06:27;101258.34;;;9.88;89.91
71465;BME280;59274;49.874;9.154;2023-04-09T08:08:52;101264.56;;;10.01;89.44
71465;BME280;59274;49.874;9.154;2023-04-09T08:11:18;101258.44;;;10.04;89.68
71465;BME280;59274;49.874;9.154;2023-04-09T08:13:50;101260.00;;;10.29;88.32
71465;BME280;59274;49.874;9.154;2023-04-09T08:16:16;101263.06;;;10.03;88.25
71465;BME280;59274;49.874;9.154;2023-04-09T08:18:41;101253.38;;;9.90;89.26
71465;BME280;59274;49.874;9.154;2023-04-09T08:21:06;101264.34;;;9.94;88.31
71465;BME280;59274;49.874;9.154;2023-04-09T08:23:32;101268.53;;;9.91;88.44
71465;BME280;59274;49.874;9.154;2023-04-09T08:25:58;101268.47;;;10.28;86.79
71465;BME280;59274;49.874;9.154;2023-04-09T08:28:23;101270.75;;;10.53;86.21
71465;BME280;59274;49.874;9.154;2023-04-09T08:30:49;101268.28;;;10.48;84.19
71465;BME280;59274;49.874;9.154;2023-04-09T08:33:15;101272.22;;;10.23;85.90
71465;BME280;59274;49.874;9.154;2023-04-09T08:35:41;101278.09;;;10.25;86.38
71465;BME280;59274;49.874;9.154;2023-04-09T08:38:06;101275.16;;;10.18;86.89
71465;BME280;59274;49.874;9.154;2023-04-09T08:40:35;101278.44;;;10.11;85.66
71465;BME280;59274;49.874;9.154;2023-04-09T08:43:04;101275.25;;;10.34;87.45
71465;BME280;59274;49.874;9.154;2023-04-09T08:45:30;101278.22;;;10.56;85.18
71465;BME280;59274;49.874;9.154;2023-04-09T08:47:55;101275.34;;;10.37;83.40
71465;BME280;59274;49.874;9.154;2023-04-09T08:50:27;101282.38;;;10.26;83.68
71465;BME280;59274;49.874;9.154;2023-04-09T08:52:53;101277.28;;;10.25;79.92
71465;BME280;59274;49.874;9.154;2023-04-09T08:55:20;101271.06;;;10.24;79.99
71465;BME280;59274;49.874;9.154;2023-04-09T08:57:46;101279.81;;;10.17;80.57
71465;BME280;59274;49.874;9.154;2023-04-09T09:00:12;101279.34;;;10.28;81.74
71465;BME280;59274;49.874;9.154;2023-04-09T09:02:37;101273.41;;;10.38;82.88
71465;BME280;59274;49.874;9.154;2023-04-09T09:05:04;101270.06;;;10.56;80.53
71465;BME280;59274;49.874;9.154;2023-04-09T09:07:30;101270.72;;;10.81;78.23
71465;BME280;59274;49.874;9.154;2023-04-09T09:09:58;101280.38;;;10.94;77.72
71465;BME280;59274;49.874;9.154;2023-04-09T09:12:36;101270.78;;;11.13;76.84
71465;BME280;59274;49.874;9.154;2023-04-09T09:15:04;101273.69;;;11.35;75.16
71465;BME280;59274;49.874;9.154;2023-04-09T09:17:30;101265.13;;;11.68;73.47
71465;BME280;59274;49.874;9.154;2023-04-09T09:19:57;101271.00;;;11.86;69.45
71465;BME280;59274;49.874;9.154;2023-04-09T09:22:23;101265.34;;;11.95;70.18
71465;BME280;59274;49.874;9.154;2023-04-09T09:24:51;101261.47;;;11.96;68.63
71465;BME280;59274;49.874;9.154;2023-04-09T09:27:31;101268.47;;;11.62;68.91
71465;BME280;59274;49.874;9.154;2023-04-09T09:29:57;101259.97;;;11.79;70.11
71465;BME280;59274;49.874;9.154;2023-04-09T09:32:23;101267.72;;;12.15;70.91
71465;BME280;59274;49.874;9.154;2023-04-09T09:35:04;101266.94;;;12.53;65.92
71465;BME280;59274;49.874;9.154;2023-04-09T09:37:30;101270.53;;;13.00;66.70
71465;BME280;59274;49.874;9.154;2023-04-09T09:39:56;101274.03;;;13.19;63.39
71465;BME280;59274;49.874;9.154;2023-04-09T09:42:23;101272.34;;;13.60;63.28
71465;BME280;59274;49.874;9.154;2023-04-09T09:44:52;101269.41;;;13.72;62.69
71465;BME280;59274;49.874;9.154;2023-04-09T09:47:18;101260.81;;;13.70;61.98
71465;BME280;59274;49.874;9.154;2023-04-09T09:49:50;101266.16;;;13.63;61.39
71465;BME280;59274;49.874;9.154;2023-04-09T09:52:20;101264.53;;;12.90;63.82
71465;BME280;59274;49.874;9.154;2023-04-09T09:54:50;101263.19;;;12.81;64.10
71465;BME280;59274;49.874;9.154;2023-04-09T09:57:19;101262.38;;;13.00;65.35
71465;BME280;59274;49.874;9.154;2023-04-09T10:00:00;101260.91;;;13.78;62.77
71465;BME280;59274;49.874;9.154;2023-04-09T10:02:27;101244.91;;;14.06;60.21
71465;BME280;59274;49.874;9.154;2023-04-09T10:04:59;101257.03;;;14.38;57.43
71465;BME280;59274;49.874;9.154;2023-04-09T10:07:25;101255.75;;;13.99;54.68
71465;BME280;59274;49.874;9.154;2023-04-09T10:09:53;101255.94;;;14.13;53.10
71465;BME280;59274;49.874;9.154;2023-04-09T10:12:22;101256.28;;;13.82;54.04
71465;BME280;59274;49.874;9.154;2023-04-09T10:14:50;101260.16;;;13.54;55.08
71465;BME280;59274;49.874;9.154;2023-04-09T10:17:18;101263.84;;;13.65;55.81
71465;BME280;59274;49.874;9.154;2023-04-09T10:19:48;101255.91;;;13.83;58.80
71465;BME280;59274;49.874;9.154;2023-04-09T10:22:19;101256.38;;;13.89;58.79
71465;BME280;59274;49.874;9.154;2023-04-09T10:24:47;101252.22;;;13.98;55.93
71465;BME280;59274;49.874;9.154;2023-04-09T10:27:15;101251.09;;;14.03;56.00
71465;BME280;59274;49.874;9.154;2023-04-09T10:29:45;101252.84;;;14.18;55.29
71465;BME280;59274;49.874;9.154;2023-04-09T10:32:11;101249.69;;;14.16;51.35
71465;BME280;59274;49.874;9.154;2023-04-09T10:34:42;101247.50;;;14.29;54.17
71465;BME280;59274;49.874;9.154;2023-04-09T10:37:29;101248.63;;;14.24;54.79
71465;BME280;59274;49.874;9.154;2023-04-09T10:39:55;101241.84;;;14.11;52.37
71465;BME280;59274;49.874;9.154;2023-04-09T10:42:22;101238.25;;;14.07;52.64
71465;BME280;59274;49.874;9.154;2023-04-09T10:47:33;101241.84;;;14.41;51.22
71465;BME280;59274;49.874;9.154;2023-04-09T10:50:25;101242.03;;;14.25;48.58
71465;BME280;59274;49.874;9.154;2023-04-09T10:52:56;101234.72;;;14.36;51.39
71465;BME280;59274;49.874;9.154;2023-04-09T10:55:39;101232.53;;;14.86;49.28
71465;BME280;59274;49.874;9.154;2023-04-09T10:58:07;101226.25;;;15.26;52.97
71465;BME280;59274;49.874;9.154;2023-04-09T11:00:39;101231.69;;;15.22;51.98
71465;BME280;59274;49.874;9.154;2023-04-09T11:03:24;101226.41;;;15.47;51.60
71465;BME280;59274;49.874;9.154;2023-04-09T11:06:03;101231.41;;;15.38;52.94
71465;BME280;59274;49.874;9.154;2023-04-09T11:08:34;101218.88;;;15.34;50.30
71465;BME280;59274;49.874;9.154;2023-04-09T11:11:01;101222.19;;;15.06;49.14
71465;BME280;59274;49.874;9.154;2023-04-09T11:13:27;101220.25;;;15.13;47.00
71465;BME280;59274;49.874;9.154;2023-04-09T11:15:55;101220.56;;;15.01;47.37
71465;BME280;59274;49.874;9.154;2023-04-09T11:18:22;101217.88;;;15.08;47.64
71465;BME280;59274;49.874;9.154;2023-04-09T11:20:48;101210.84;;;15.07;46.87
71465;BME280;59274;49.874;9.154;2023-04-09T11:23:15;101208.63;;;14.79;45.96
71465;BME280;59274;49.874;9.154;2023-04-09T11:25:41;101205.75;;;15.06;46.40
71465;BME280;59274;49.874;9.154;2023-04-09T11:28:07;101203.91;;;15.20;48.67
71465;BME280;59274;49.874;9.154;2023-04-09T11:30:33;101202.31;;;15.16;47.92
71465;BME280;59274;49.874;9.154;2023-04-09T11:32:59;101204.41;;;15.37;48.68
71465;BME280;59274;49.874;9.154;2023-04-09T11:35:25;101195.63;;;15.61;48.33
71465;BME280;59274;49.874;9.154;2023-04-09T11:37:51;101192.53;;;15.70;46.21
71465;BME280;59274;49.874;9.154;2023-04-09T11:40:22;101195.78;;;16.00;47.10
71465;BME280;59274;49.874;9.154;2023-04-09T11:42:50;101195.53;;;16.37;47.16
71465;BME280;59274;49.874;9.154;2023-04-09T11:45:17;101186.06;;;16.20;45.09
71465;BME280;59274;49.874;9.154;2023-04-09T11:47:44;101188.25;;;15.79;44.32
71465;BME280;59274;49.874;9.154;2023-04-09T11:50:12;101191.84;;;14.81;44.78
71465;BME280;59274;49.874;9.154;2023-04-09T11:52:38;101189.41;;;14.35;45.12
71465;BME280;59274;49.874;9.154;2023-04-09T11:55:06;101190.50;;;14.61;46.47
71465;BME280;59274;49.874;9.154;2023-04-09T11:57:52;101189.47;;;14.76;46.33
71465;BME280;59274;49.874;9.154;2023-04-09T12:00:18;101188.38;;;15.35;50.15
71465;BME280;59274;49.874;9.154;2023-04-09T12:02:49;101181.50;;;15.59;47.50
71465;BME280;59274;49.874;9.154;2023-04-09T12:05:22;101183.19;;;15.81;46.94
71465;BME280;59274;49.874;9.154;2023-04-09T12:07:49;101183.19;;;15.81;42.93
71465;BME280;59274;49.874;9.154;2023-04-09T12:10:14;101184.13;;;16.28;43.05
71465;BME280;59274;49.874;9.154;2023-04-09T12:12:44;101178.25;;;16.19;42.59
71465;BME280;59274;49.874;9.154;2023-04-09T12:15:31;101179.41;;;16.11;43.31
71465;BME280;59274;49.874;9.154;2023-04-09T12:17:58;101177.50;;;16.36;43.32
71465;BME280;59274;49.874;9.154;2023-04-09T12:20:28;101174.41;;;16.41;42.25
71465;BME280;59274;49.874;9.154;2023-04-09T12:22:55;101176.69;;;16.18;45.32
71465;BME280;59274;49.874;9.154;2023-04-09T12:25:21;101177.03;;;16.09;44.06
71465;BME280;59274;49.874;9.154;2023-04-09T12:27:46;101174.16;;;15.70;44.93
71465;BME280;59274;49.874;9.154;2023-04-09T12:30:11;101177.88;;;16.34;42.23
71465;BME280;59274;49.874;9.154;2023-04-09T12:32:37;101175.06;;;16.02;43.59
71465;BME280;59274;49.874;9.154;2023-04-09T12:35:03;101171.13;;;15.96;42.55
71465;BME280;59274;49.874;9.154;2023-04-09T12:37:29;101166.44;;;15.97;42.71
71465;BME280;59274;49.874;9.154;2023-04-09T12:39:54;101166.56;;;15.49;41.57
71465;BME280;59274;49.874;9.154;2023-04-09T12:42:20;101157.50;;;15.42;43.35
71465;BME280;59274;49.874;9.154;2023-04-09T12:44:45;101159.31;;;15.78;42.75
71465;BME280;59274;49.874;9.154;2023-04-09T12:47:11;101155.34;;;15.69;42.94
71465;BME280;59274;49.874;9.154;2023-04-09T12:49:37;101151.75;;;15.54;42.47
71465;BME280;59274;49.874;9.154;2023-04-09T12:52:03;101154.00;;;15.41;42.39
71465;BME280;59274;49.874;9.154;2023-04-09T12:54:28;101148.53;;;15.45;43.03
71465;BME280;59274;49.874;9.154;2023-04-09T12:56:53;101144.38;;;15.03;43.49
71465;BME280;59274;49.874;9.154;2023-04-09T12:59:19;101150.16;;;14.95;43.17
71465;BME280;59274;49.874;9.154;2023-04-09T13:01:44;101148.31;;;15.06;42.86